createdAt,value
2022-10-28T00:01:17.103Z,96498.66
2022-10-28T00:03:47.141Z,96490.38
2022-10-28T00:06:17.301Z,96488.22
2022-10-28T00:08:46.168Z,96512.78
2022-10-28T00:11:17.065Z,96501.31
2022-10-28T00:13:46.437Z,96497.31
2022-10-28T00:16:17.666Z,96504.00
2022-10-28T00:18:46.188Z,96502.88
2022-10-28T00:21:15.851Z,96499.19
2022-10-28T00:23:44.139Z,96503.19
2022-10-28T00:26:14.739Z,96501.56
2022-10-28T00:28:43.763Z,96499.94
2022-10-28T00:31:14.317Z,96494.66
2022-10-28T00:33:43.987Z,96511.66
2022-10-28T00:36:15.142Z,96507.22
2022-10-28T00:38:44.926Z,96510.41
2022-10-28T00:41:15.432Z,96507.97
2022-10-28T00:43:46.001Z,96507.47
2022-10-28T00:46:21.263Z,96511.22
2022-10-28T00:48:55.835Z,96501.88
2022-10-28T00:51:26.563Z,96500.00
2022-10-28T00:53:57.097Z,96504.00
2022-10-28T00:59:02.505Z,96508.00
2022-10-28T01:01:30.952Z,96508.00
2022-10-28T01:04:02.778Z,96501.06
2022-10-28T01:06:31.658Z,96505.59
2022-10-28T01:09:00.352Z,96507.97
2022-10-28T01:11:46.836Z,96506.94
2022-10-28T01:14:39.023Z,96508.00
2022-10-28T01:17:28.777Z,96510.09
2022-10-28T01:20:48.304Z,96508.53
2022-10-28T01:23:27.420Z,96501.56
2022-10-28T01:26:13.549Z,96499.72
2022-10-28T01:29:04.314Z,96504.56
2022-10-28T01:31:41.803Z,96506.66
2022-10-28T01:34:19.266Z,96498.38
2022-10-28T01:36:57.655Z,96508.69
2022-10-28T01:39:34.233Z,96509.66
2022-10-28T01:42:14.894Z,96501.81
2022-10-28T01:44:53.125Z,96501.91
2022-10-28T01:47:26.763Z,96503.59
2022-10-28T01:49:59.709Z,96508.72
2022-10-28T01:52:31.161Z,96517.50
2022-10-28T01:55:04.304Z,96504.44
2022-10-28T01:57:36.220Z,96510.47
2022-10-28T02:00:05.516Z,96511.13
2022-10-28T02:02:38.662Z,96510.28
2022-10-28T02:05:29.167Z,96508.41
2022-10-28T02:08:04.932Z,96502.28
2022-10-28T02:10:43.729Z,96521.94
2022-10-28T02:13:15.773Z,96512.94
2022-10-28T02:15:53.228Z,96520.72
2022-10-28T02:18:28.443Z,96512.75
2022-10-28T02:21:02.553Z,96520.22
2022-10-28T02:23:44.379Z,96515.94
2022-10-28T02:26:19.466Z,96498.47
2022-10-28T02:28:56.170Z,96514.00
2022-10-28T02:31:28.020Z,96519.09
2022-10-28T02:34:02.972Z,96504.03
2022-10-28T02:36:35.981Z,96519.63
2022-10-28T02:39:07.581Z,96528.69
2022-10-28T02:41:41.496Z,96524.63
2022-10-28T02:44:13.189Z,96524.97
2022-10-28T02:46:46.372Z,96520.75
2022-10-28T02:49:16.916Z,96527.56
2022-10-28T02:51:48.051Z,96521.50
2022-10-28T02:54:18.668Z,96510.72
2022-10-28T02:56:52.791Z,96527.97
2022-10-28T02:59:21.066Z,96529.47
2022-10-28T03:01:49.376Z,96529.81
2022-10-28T03:04:19.080Z,96521.22
2022-10-28T03:06:47.337Z,96530.22
2022-10-28T03:09:15.735Z,96531.75
2022-10-28T03:11:43.947Z,96533.06
2022-10-28T03:14:14.655Z,96535.16
2022-10-28T03:16:43.931Z,96526.38
2022-10-28T03:19:12.185Z,96536.66
2022-10-28T03:21:41.944Z,96538.03
2022-10-28T03:24:10.255Z,96536.88
2022-10-28T03:26:38.524Z,96543.66
2022-10-28T03:29:06.832Z,96550.50
2022-10-28T03:31:35.400Z,96542.09
2022-10-28T03:34:03.640Z,96550.56
2022-10-28T03:36:31.867Z,96551.50
2022-10-28T03:39:01.664Z,96548.41
2022-10-28T03:41:29.867Z,96543.63
2022-10-28T03:43:58.288Z,96547.38
2022-10-28T03:46:26.512Z,96552.00
2022-10-28T03:48:54.904Z,96544.78
2022-10-28T03:51:23.156Z,96553.00
2022-10-28T03:54:08.543Z,96551.31
2022-10-28T03:56:40.637Z,96551.28
2022-10-28T03:59:10.667Z,96550.09
2022-10-28T04:01:38.985Z,96554.31
2022-10-28T04:04:07.737Z,96546.44
2022-10-28T04:06:35.961Z,96552.56
2022-10-28T04:09:04.165Z,96555.31
2022-10-28T04:11:32.488Z,96548.25
2022-10-28T04:14:02.124Z,96556.00
2022-10-28T04:16:30.312Z,96555.97
2022-10-28T04:18:58.749Z,96556.13
2022-10-28T04:21:27.233Z,96527.69
2022-10-28T04:23:55.524Z,96554.47
2022-10-28T04:26:23.763Z,96553.88
2022-10-28T04:28:53.192Z,96550.63
2022-10-28T04:31:22.817Z,96553.06
2022-10-28T04:33:50.988Z,96545.31
2022-10-28T04:36:19.326Z,96552.56
2022-10-28T04:38:47.583Z,96555.41
2022-10-28T04:41:16.340Z,96553.69
2022-10-28T04:43:44.621Z,96554.53
2022-10-28T04:46:12.826Z,96551.97
2022-10-28T04:48:42.494Z,96543.66
2022-10-28T04:51:10.684Z,96554.91
2022-10-28T04:53:38.900Z,96533.25
2022-10-28T04:56:07.679Z,96551.22
2022-10-28T04:58:35.978Z,96555.16
2022-10-28T05:01:07.562Z,96565.63
2022-10-28T05:03:36.121Z,96358.34
2022-10-28T05:06:06.052Z,96571.34
2022-10-28T05:08:34.282Z,96575.13
2022-10-28T05:11:02.549Z,96573.25
2022-10-28T05:13:30.852Z,96579.31
2022-10-28T05:15:59.084Z,96581.53
2022-10-28T05:18:27.351Z,96495.41
2022-10-28T05:20:55.927Z,96587.53
2022-10-28T05:23:29.878Z,96569.78
2022-10-28T05:25:59.202Z,96586.41
2022-10-28T05:28:27.488Z,96590.81
2022-10-28T05:30:55.878Z,96584.19
2022-10-28T05:33:24.421Z,96594.13
2022-10-28T05:35:52.834Z,96589.84
2022-10-28T05:38:21.053Z,96582.41
2022-10-28T05:40:50.674Z,96597.94
2022-10-28T05:43:18.875Z,96598.38
2022-10-28T05:45:54.183Z,96596.94
2022-10-28T05:48:22.785Z,96604.38
2022-10-28T05:50:51.095Z,96601.34
2022-10-28T05:53:19.380Z,96611.50
2022-10-28T05:55:48.015Z,96608.69
2022-10-28T05:58:17.851Z,96593.19
2022-10-28T06:00:46.156Z,96606.28
2022-10-28T06:03:14.488Z,96612.72
2022-10-28T06:05:45.083Z,96613.25
2022-10-28T06:08:14.917Z,96588.25
2022-10-28T06:10:51.838Z,96545.06
2022-10-28T06:13:22.928Z,96616.81
2022-10-28T06:15:52.580Z,96618.53
2022-10-28T06:18:21.199Z,96617.19
2022-10-28T06:20:53.902Z,96616.91
2022-10-28T06:23:22.678Z,96611.69
2022-10-28T06:25:51.142Z,96619.66
2022-10-28T06:28:19.407Z,96612.41
2022-10-28T06:30:49.073Z,96621.88
2022-10-28T06:33:17.639Z,96621.84
2022-10-28T06:35:45.983Z,96633.09
2022-10-28T06:38:14.277Z,96626.97
2022-10-28T06:40:42.509Z,96624.44
2022-10-28T06:43:13.016Z,96622.53
2022-10-28T06:45:41.262Z,96618.56
2022-10-28T06:48:12.683Z,96621.00
2022-10-28T06:50:41.289Z,96615.38
2022-10-28T06:53:10.524Z,96619.66
2022-10-28T06:55:38.745Z,96618.78
2022-10-28T06:58:07.088Z,96619.06
2022-10-28T07:00:35.337Z,96614.31
2022-10-28T07:03:03.627Z,96610.88
2022-10-28T07:05:33.268Z,96613.44
2022-10-28T07:08:01.489Z,96617.47
2022-10-28T07:10:29.831Z,96612.63
2022-10-28T07:12:58.136Z,96603.88
2022-10-28T07:15:26.665Z,96603.66
2022-10-28T07:17:55.161Z,96489.59
2022-10-28T07:20:24.336Z,96604.13
2022-10-28T07:22:58.414Z,96603.41
2022-10-28T07:25:26.664Z,96585.88
2022-10-28T07:27:55.486Z,96593.09
2022-10-28T07:30:24.147Z,96596.75
2022-10-28T07:32:52.811Z,96597.22
2022-10-28T07:35:21.664Z,96594.66
2022-10-28T07:37:49.935Z,96592.25
2022-10-28T07:40:19.815Z,96589.75
2022-10-28T07:42:48.054Z,96591.47
2022-10-28T07:45:16.877Z,96579.38
2022-10-28T07:47:45.492Z,96580.69
2022-10-28T07:50:14.034Z,96528.25
2022-10-28T07:52:42.446Z,96552.44
2022-10-28T07:55:12.030Z,96572.28
2022-10-28T07:57:41.755Z,96570.84
2022-10-28T08:00:10.963Z,96570.16
2022-10-28T08:02:39.296Z,96569.31
2022-10-28T08:05:08.173Z,96560.13
2022-10-28T08:07:38.637Z,96563.03
2022-10-28T08:10:08.297Z,96553.28
2022-10-28T08:12:36.650Z,96562.84
2022-10-28T08:15:09.587Z,96546.91
2022-10-28T08:17:37.830Z,96560.63
2022-10-28T08:20:07.162Z,96558.28
2022-10-28T08:22:35.363Z,96558.13
2022-10-28T08:25:03.583Z,96557.56
2022-10-28T08:27:32.176Z,96549.59
2022-10-28T08:30:00.440Z,96551.91
2022-10-28T08:32:30.100Z,96549.16
2022-10-28T08:34:58.295Z,96546.81
2022-10-28T08:37:26.657Z,96549.13
2022-10-28T08:39:54.950Z,96549.41
2022-10-28T08:42:36.603Z,96542.44
2022-10-28T08:45:19.976Z,96546.66
2022-10-28T08:47:59.324Z,96533.91
2022-10-28T08:50:31.879Z,96536.03
2022-10-28T08:53:02.622Z,96532.78
2022-10-28T08:55:34.810Z,96533.81
2022-10-28T08:58:09.683Z,96465.22
2022-10-28T09:00:38.496Z,96505.53
2022-10-28T09:03:22.450Z,96514.69
2022-10-28T09:05:57.746Z,96516.44
2022-10-28T09:08:28.806Z,96515.75
2022-10-28T09:11:08.162Z,96504.19
2022-10-28T09:13:49.484Z,96505.41
2022-10-28T09:16:29.826Z,96504.19
2022-10-28T09:19:06.103Z,96499.31
2022-10-28T09:21:41.446Z,96500.38
2022-10-28T09:24:20.306Z,96485.78
2022-10-28T09:26:59.788Z,96433.13
2022-10-28T09:29:44.257Z,96487.78
2022-10-28T09:32:23.124Z,96481.34
2022-10-28T09:34:58.941Z,96476.44
2022-10-28T09:37:32.034Z,96472.28
2022-10-28T09:40:06.350Z,96471.22
2022-10-28T09:42:42.406Z,96454.78
2022-10-28T09:45:16.310Z,96469.41
2022-10-28T09:47:57.466Z,96461.81
2022-10-28T09:50:32.021Z,96448.50
2022-10-28T09:53:07.373Z,96434.06
2022-10-28T09:55:35.880Z,96451.63
2022-10-28T09:58:04.851Z,96442.41
2022-10-28T10:00:33.742Z,96433.31
2022-10-28T10:03:02.101Z,96425.56
2022-10-28T10:05:34.522Z,96422.72
2022-10-28T10:08:06.053Z,96344.28
2022-10-28T10:10:44.863Z,96414.81
2022-10-28T10:13:14.717Z,96401.44
2022-10-28T10:15:47.767Z,96354.94
2022-10-28T10:18:21.291Z,96370.63
2022-10-28T10:20:53.073Z,96389.19
2022-10-28T10:23:28.564Z,96378.56
2022-10-28T10:26:00.371Z,96377.44
2022-10-28T10:28:29.888Z,96367.34
2022-10-28T10:31:01.037Z,96367.03
2022-10-28T10:33:34.208Z,96365.97
2022-10-28T10:36:06.695Z,96369.56
2022-10-28T10:38:36.622Z,96365.25
2022-10-28T10:41:05.167Z,96353.44
2022-10-28T10:43:34.480Z,96350.69
2022-10-28T10:46:05.555Z,96344.00
2022-10-28T10:48:36.565Z,96343.66
2022-10-28T10:51:13.943Z,96340.88
2022-10-28T10:53:42.332Z,96327.09
2022-10-28T10:56:13.270Z,96334.31
2022-10-28T10:58:51.766Z,96328.59
2022-10-28T11:01:22.832Z,96329.47
2022-10-28T11:03:55.189Z,96321.25
2022-10-28T11:06:28.228Z,96322.91
2022-10-28T11:08:59.682Z,96319.16
2022-10-28T11:11:35.638Z,96312.69
2022-10-28T11:14:07.241Z,96311.03
2022-10-28T11:16:35.788Z,96305.94
2022-10-28T11:19:21.087Z,96301.94
2022-10-28T11:22:05.157Z,96299.28
2022-10-28T11:24:47.975Z,96295.13
2022-10-28T11:27:28.936Z,96287.06
2022-10-28T11:30:00.472Z,96288.94
2022-10-28T11:32:54.645Z,96274.50
2022-10-28T11:35:44.093Z,96272.94
2022-10-28T11:38:28.246Z,96263.38
2022-10-28T11:41:13.741Z,96265.88
2022-10-28T11:43:54.644Z,96260.34
2022-10-28T11:46:46.446Z,96256.75
2022-10-28T11:49:46.781Z,96247.97
2022-10-28T11:52:26.949Z,96228.53
2022-10-28T11:55:09.043Z,96246.56
2022-10-28T11:57:48.858Z,96227.41
2022-10-28T12:00:28.941Z,96234.84
2022-10-28T12:03:13.725Z,96220.31
2022-10-28T12:05:48.493Z,96227.00
2022-10-28T12:08:37.965Z,96226.22
2022-10-28T12:11:18.396Z,96218.72
2022-10-28T12:13:58.632Z,96217.44
2022-10-28T12:16:34.350Z,96225.06
2022-10-28T12:19:10.228Z,96214.44
2022-10-28T12:21:42.908Z,96207.72
2022-10-28T12:24:16.571Z,96205.78
2022-10-28T12:26:51.164Z,96204.09
2022-10-28T12:29:24.454Z,96204.59
2022-10-28T12:31:57.290Z,96199.13
2022-10-28T12:34:33.818Z,96197.03
2022-10-28T12:37:06.625Z,96198.00
2022-10-28T12:39:39.806Z,96195.78
2022-10-28T12:42:15.916Z,96195.69
2022-10-28T12:44:47.739Z,96189.72
2022-10-28T12:47:26.662Z,96186.06
2022-10-28T12:50:11.795Z,96194.38
2022-10-28T12:52:47.984Z,96185.59
2022-10-28T12:55:38.841Z,96139.09
2022-10-28T12:58:17.999Z,96186.44
2022-10-28T13:00:50.546Z,96188.94
2022-10-28T13:03:19.004Z,96189.97
2022-10-28T13:05:53.079Z,96177.63
2022-10-28T13:08:52.748Z,96172.31
2022-10-28T13:12:05.827Z,96184.91
2022-10-28T13:15:13.600Z,96177.50
2022-10-28T13:17:56.691Z,96181.13
2022-10-28T13:20:39.856Z,96174.94
2022-10-28T13:23:22.827Z,96169.34
2022-10-28T13:25:59.811Z,96182.53
2022-10-28T13:28:33.045Z,96176.94
2022-10-28T13:31:05.020Z,96172.19
2022-10-28T13:33:36.527Z,96175.28
2022-10-28T13:36:19.979Z,96170.66
2022-10-28T13:38:53.979Z,96171.41
2022-10-28T13:41:32.203Z,96179.44
2022-10-28T13:44:22.803Z,96165.28
2022-10-28T13:47:32.776Z,96165.88
2022-10-28T13:50:41.889Z,96165.03
2022-10-28T13:53:40.589Z,96169.16
2022-10-28T13:56:33.447Z,96166.63
2022-10-28T13:59:05.198Z,96166.22
2022-10-28T14:05:00.211Z,96170.50
2022-10-28T14:07:31.513Z,96172.88
2022-10-28T14:10:20.073Z,96164.53
2022-10-28T14:12:53.498Z,96167.16
2022-10-28T14:15:25.760Z,96177.97
2022-10-28T14:18:09.954Z,96174.44
2022-10-28T14:21:00.944Z,96176.53
2022-10-28T14:23:52.192Z,96177.44
2022-10-28T14:26:20.458Z,96172.72
2022-10-28T14:28:53.386Z,96177.44
2022-10-28T14:31:37.004Z,96182.66
2022-10-28T14:34:44.716Z,96183.00
2022-10-28T14:40:20.748Z,96197.00
2022-10-28T14:43:15.543Z,96193.25
2022-10-28T14:45:55.887Z,96204.13
2022-10-28T14:48:41.675Z,96195.88
2022-10-28T14:51:14.084Z,96204.22
2022-10-28T14:53:45.376Z,96208.78
2022-10-28T14:58:58.750Z,96210.34
2022-10-28T15:01:29.348Z,96210.16
2022-10-28T15:04:02.230Z,96082.63
2022-10-28T15:06:34.329Z,96205.84
2022-10-28T15:09:17.650Z,96215.06
2022-10-28T15:11:48.980Z,96219.81
2022-10-28T15:14:26.598Z,96206.28
2022-10-28T15:16:55.809Z,96211.06
2022-10-28T15:19:27.377Z,96215.78
2022-10-28T15:22:07.210Z,96220.91
2022-10-28T15:24:36.942Z,96226.66
2022-10-28T15:27:05.306Z,96182.44
2022-10-28T15:29:33.751Z,96229.28
2022-10-28T15:32:12.407Z,96231.13
2022-10-28T15:34:41.095Z,96244.94
2022-10-28T15:37:10.288Z,96245.84
2022-10-28T15:39:40.851Z,96244.09
2022-10-28T15:42:31.869Z,96245.13
2022-10-28T15:45:00.865Z,96033.69
2022-10-28T15:47:34.558Z,96251.69
2022-10-28T15:50:23.386Z,96252.41
2022-10-28T15:52:53.686Z,96247.16
2022-10-28T15:56:02.423Z,96260.00
2022-10-28T15:58:39.855Z,96262.88
2022-10-28T16:01:11.343Z,96269.13
2022-10-28T16:03:44.852Z,96213.13
2022-10-28T16:06:26.165Z,96265.41
2022-10-28T16:09:18.848Z,96283.25
2022-10-28T16:11:51.367Z,96286.53
2022-10-28T16:14:33.782Z,96293.16
2022-10-28T16:17:15.622Z,96298.72
2022-10-28T16:19:48.018Z,96295.78
2022-10-28T16:22:18.506Z,96300.75
2022-10-28T16:24:47.287Z,96295.22
2022-10-28T16:27:20.133Z,96315.16
2022-10-28T16:29:48.563Z,96320.97
2022-10-28T16:32:18.711Z,96320.94
2022-10-28T16:34:46.995Z,96284.56
2022-10-28T16:37:22.274Z,96319.19
2022-10-28T16:39:50.846Z,96328.53
2022-10-28T16:42:21.724Z,96325.63
2022-10-28T16:44:50.330Z,96337.53
2022-10-28T16:47:20.263Z,96305.50
2022-10-28T16:49:54.133Z,96340.09
2022-10-28T16:52:27.993Z,96345.41
2022-10-28T16:54:56.586Z,96334.44
2022-10-28T16:57:26.787Z,96345.00
2022-10-28T16:59:55.221Z,96349.66
2022-10-28T17:02:27.156Z,96349.84
2022-10-28T17:04:55.685Z,96353.63
2022-10-28T17:07:24.059Z,96348.28
2022-10-28T17:09:53.150Z,96350.28
2022-10-28T17:12:24.240Z,96364.31
2022-10-28T17:14:54.416Z,96363.50
2022-10-28T17:17:22.701Z,96364.47
2022-10-28T17:19:51.221Z,96340.00
2022-10-28T17:22:19.527Z,96379.69
2022-10-28T17:24:47.746Z,96379.59
2022-10-28T17:27:16.091Z,96381.66
2022-10-28T17:29:44.411Z,96378.28
2022-10-28T17:32:14.120Z,96378.94
2022-10-28T17:34:42.369Z,96384.66
2022-10-28T17:37:10.881Z,96381.31
2022-10-28T17:39:39.237Z,96376.94
2022-10-28T17:42:07.663Z,96382.91
2022-10-28T17:44:36.699Z,96386.91
2022-10-28T17:47:05.025Z,96386.69
2022-10-28T17:49:36.585Z,96392.53
2022-10-28T17:52:04.921Z,96382.16
2022-10-28T17:54:33.307Z,96392.94
2022-10-28T17:57:01.643Z,96392.19
2022-10-28T17:59:29.945Z,96398.13
2022-10-28T18:01:58.319Z,96388.00
2022-10-28T18:04:26.932Z,96386.38
2022-10-28T18:06:58.196Z,96391.72
2022-10-28T18:09:27.802Z,96343.34
2022-10-28T18:11:56.026Z,96390.66
2022-10-28T18:14:24.278Z,96379.78
2022-10-28T18:16:52.503Z,96379.00
2022-10-28T18:19:20.881Z,96367.91
2022-10-28T18:21:49.473Z,96378.06
2022-10-28T18:24:21.934Z,96342.78
2022-10-28T18:26:56.668Z,96307.22
2022-10-28T18:29:25.045Z,96387.69
2022-10-28T18:31:53.314Z,96389.56
2022-10-28T18:34:23.842Z,96388.09
2022-10-28T18:36:52.217Z,96396.41
2022-10-28T18:39:21.879Z,96388.88
2022-10-28T18:41:51.571Z,96398.50
2022-10-28T18:44:21.785Z,96403.03
2022-10-28T18:46:51.412Z,96399.34
2022-10-28T18:49:19.662Z,96401.66
2022-10-28T18:51:47.974Z,96399.72
2022-10-28T18:54:16.223Z,96404.38
2022-10-28T18:56:47.970Z,96385.63
2022-10-28T18:59:16.941Z,96411.84
2022-10-28T19:01:47.122Z,96409.72
2022-10-28T19:04:15.879Z,96410.25
2022-10-28T19:06:44.511Z,96398.78
2022-10-28T19:09:12.742Z,96418.31
2022-10-28T19:11:41.035Z,96415.69
2022-10-28T19:14:11.110Z,96411.94
2022-10-28T19:16:39.361Z,96413.19
2022-10-28T19:19:08.212Z,96424.38
2022-10-28T19:21:36.825Z,96420.19
2022-10-28T19:24:05.684Z,96396.97
2022-10-28T19:26:35.001Z,96427.25
2022-10-28T19:29:05.456Z,96424.16
2022-10-28T19:31:37.274Z,96426.03
2022-10-28T19:34:10.905Z,96420.16
2022-10-28T19:36:39.600Z,96438.88
2022-10-28T19:39:10.510Z,96435.66
2022-10-28T19:41:39.859Z,96443.16
2022-10-28T19:44:08.092Z,96443.69
2022-10-28T19:46:38.158Z,96439.41
2022-10-28T19:49:07.533Z,96449.81
2022-10-28T19:51:37.996Z,96451.00
2022-10-28T19:54:10.767Z,96452.88
2022-10-28T19:56:39.994Z,96457.59
2022-10-28T19:59:08.642Z,96455.81
2022-10-28T20:01:39.807Z,96437.59
2022-10-28T20:04:09.954Z,96456.31
2022-10-28T20:06:39.934Z,96457.97
2022-10-28T20:09:08.496Z,96482.38
2022-10-28T20:11:39.549Z,96459.06
2022-10-28T20:14:10.822Z,96465.25
2022-10-28T20:16:42.787Z,96465.81
2022-10-28T20:19:11.757Z,96469.81
2022-10-28T20:21:40.974Z,96463.09
2022-10-28T20:24:09.698Z,96371.88
2022-10-28T20:26:39.491Z,96454.72
2022-10-28T20:29:09.985Z,96456.56
2022-10-28T20:31:39.185Z,96459.25
2022-10-28T20:34:09.465Z,96436.59
2022-10-28T20:36:40.658Z,96466.31
2022-10-28T20:39:13.253Z,96461.28
2022-10-28T20:41:43.030Z,96452.22
2022-10-28T20:44:14.100Z,96304.56
2022-10-28T20:46:42.757Z,96464.97
2022-10-28T20:49:13.402Z,96464.78
2022-10-28T20:51:42.543Z,96469.06
2022-10-28T20:54:10.745Z,96467.19
2022-10-28T20:56:40.441Z,96467.19
2022-10-28T20:59:09.242Z,96460.25
2022-10-28T21:01:39.365Z,96464.78
2022-10-28T21:04:10.232Z,96471.69
2022-10-28T21:06:40.249Z,96469.28
2022-10-28T21:09:09.024Z,96481.59
2022-10-28T21:11:37.407Z,96480.22
2022-10-28T21:14:05.669Z,96485.38
2022-10-28T21:16:34.887Z,96479.22
2022-10-28T21:19:03.378Z,96486.03
2022-10-28T21:21:32.144Z,96476.78
2022-10-28T21:24:01.916Z,96476.94
2022-10-28T21:26:30.190Z,96477.00
2022-10-28T21:28:58.438Z,96482.16
2022-10-28T21:31:26.926Z,96484.63
2022-10-28T21:33:55.189Z,96486.00
2022-10-28T21:36:23.632Z,96485.19
2022-10-28T21:38:55.464Z,96485.47
2022-10-28T21:41:25.945Z,96475.63
2022-10-28T21:43:54.923Z,96471.38
2022-10-28T21:46:24.163Z,96480.69
2022-10-28T21:48:53.356Z,96470.50
2022-10-28T21:51:21.601Z,96489.16
2022-10-28T21:53:49.900Z,96481.09
2022-10-28T21:56:20.197Z,96486.28
2022-10-28T21:58:51.206Z,96482.69
2022-10-28T22:01:21.720Z,96481.41
2022-10-28T22:03:50.508Z,96477.66
2022-10-28T22:06:18.744Z,96485.66
2022-10-28T22:08:47.125Z,96481.13
2022-10-28T22:11:17.071Z,96476.56
2022-10-28T22:13:45.974Z,96476.31
2022-10-28T22:16:17.182Z,96470.91
2022-10-28T22:18:45.947Z,96466.19
2022-10-28T22:21:16.239Z,96463.00
2022-10-28T22:23:44.467Z,96472.19
2022-10-28T22:26:15.719Z,96463.91
2022-10-28T22:28:44.276Z,96463.09
2022-10-28T22:31:16.637Z,96460.22
2022-10-28T22:36:20.076Z,96459.63
2022-10-28T22:38:48.746Z,96458.56
2022-10-28T22:41:19.090Z,96449.25
2022-10-28T22:43:50.440Z,96451.16
2022-10-28T22:46:20.537Z,96462.78
2022-10-28T22:48:49.301Z,96464.81
2022-10-28T22:51:18.202Z,96473.34
2022-10-28T22:53:46.967Z,96464.03
2022-10-28T22:56:17.238Z,96470.38
2022-10-28T22:58:45.408Z,96472.91
2022-10-28T23:01:15.667Z,96463.06
2022-10-28T23:03:46.857Z,96460.44
2022-10-28T23:06:16.480Z,96468.25
2022-10-28T23:08:46.031Z,96458.03
2022-10-28T23:11:16.138Z,96445.38
2022-10-28T23:13:44.616Z,96447.00
2022-10-28T23:16:14.822Z,96452.53
2022-10-28T23:18:44.172Z,96448.09
2022-10-28T23:21:16.328Z,96430.38
2022-10-28T23:23:49.814Z,96443.28
2022-10-28T23:26:21.353Z,96443.72
2022-10-28T23:28:52.968Z,96441.19
2022-10-28T23:31:22.088Z,96430.69
2022-10-28T23:33:50.951Z,96440.69
2022-10-28T23:36:20.753Z,96440.88
2022-10-28T23:38:49.040Z,96439.16
2022-10-28T23:41:18.977Z,96372.44
2022-10-28T23:43:48.865Z,96439.84
2022-10-28T23:46:17.456Z,96439.03
2022-10-28T23:48:45.694Z,96449.44
2022-10-28T23:51:14.174Z,96454.06
2022-10-28T23:53:43.830Z,96443.50
2022-10-28T23:56:12.062Z,96456.31
2022-10-28T23:58:40.318Z,96447.94
